Aviation Digital Data Service (ADDS)

Output produced by METARs form (0617 UTC 23 September 2014)
found at http://aviationweather.gov/adds/metars/
 
KART 230538Z 2306/2406 VRB03KT P6SM SCT070 
     FM230800 VRB03KT P6SM OVC050 
     FM231200 23006KT P6SM BKN035 
     FM231600 24010KT P6SM BKN040 
     FM232300 22005KT P6SM BKN050 
     FM240400 VRB03KT P6SM SCT040